sensor_id;sensor_type;location;lat;lon;timestamp;pressure;altitude;pressure_sealevel;temperature;humidity
70521;BME280;58442;52.716;23.560;2023-08-24T00:00:13;101602.81;;;15.00;64.28
70521;BME280;58442;52.716;23.560;2023-08-24T00:02:19;101601.59;;;14.97;64.41
70521;BME280;58442;52.716;23.560;2023-08-24T00:04:20;101607.76;;;14.94;64.47
70521;BME280;58442;52.716;23.560;2023-08-24T00:06:22;101601.86;;;14.92;64.51
70521;BME280;58442;52.716;23.560;2023-08-24T00:08:27;101604.16;;;14.90;64.53
70521;BME280;58442;52.716;23.560;2023-08-24T00:10:28;101614.33;;;14.90;64.61
70521;BME280;58442;52.716;23.560;2023-08-24T00:12:29;101608.38;;;14.88;64.63
70521;BME280;58442;52.716;23.560;2023-08-24T00:14:31;101619.69;;;14.86;64.61
70521;BME280;58442;52.716;23.560;2023-08-24T00:16:42;101612.64;;;14.85;64.61
70521;BME280;58442;52.716;23.560;2023-08-24T00:18:43;101605.94;;;14.83;64.68
70521;BME280;58442;52.716;23.560;2023-08-24T00:20:46;101610.95;;;14.81;64.75
70521;BME280;58442;52.716;23.560;2023-08-24T00:22:49;101607.78;;;14.78;64.78
70521;BME280;58442;52.716;23.560;2023-08-24T00:24:56;101604.26;;;14.78;64.81
70521;BME280;58442;52.716;23.560;2023-08-24T00:26:58;101603.83;;;14.76;64.90
70521;BME280;58442;52.716;23.560;2023-08-24T00:28:59;101608.52;;;14.75;64.94
70521;BME280;58442;52.716;23.560;2023-08-24T00:31:01;101604.52;;;14.73;64.96
70521;BME280;58442;52.716;23.560;2023-08-24T00:33:11;101606.46;;;14.72;65.00
70521;BME280;58442;52.716;23.560;2023-08-24T00:35:12;101604.09;;;14.71;65.10
70521;BME280;58442;52.716;23.560;2023-08-24T00:37:14;101607.52;;;14.68;65.14
70521;BME280;58442;52.716;23.560;2023-08-24T00:39:15;101594.98;;;14.67;65.17
70521;BME280;58442;52.716;23.560;2023-08-24T00:41:26;101596.49;;;14.64;65.21
70521;BME280;58442;52.716;23.560;2023-08-24T00:43:28;101596.06;;;14.62;65.21
70521;BME280;58442;52.716;23.560;2023-08-24T00:45:30;101598.80;;;14.62;65.17
70521;BME280;58442;52.716;23.560;2023-08-24T00:47:34;101598.34;;;14.60;65.12
70521;BME280;58442;52.716;23.560;2023-08-24T00:49:41;101600.65;;;14.58;65.17
70521;BME280;58442;52.716;23.560;2023-08-24T00:51:43;101595.88;;;14.55;65.26
70521;BME280;58442;52.716;23.560;2023-08-24T00:53:45;101588.38;;;14.52;65.34
70521;BME280;58442;52.716;23.560;2023-08-24T00:55:47;101592.26;;;14.51;65.35
70521;BME280;58442;52.716;23.560;2023-08-24T00:57:56;101584.41;;;14.49;65.40
70521;BME280;58442;52.716;23.560;2023-08-24T01:00:03;101587.15;;;14.49;65.49
70521;BME280;58442;52.716;23.560;2023-08-24T01:02:07;101586.68;;;14.47;65.52
70521;BME280;58442;52.716;23.560;2023-08-24T01:04:08;101581.57;;;14.46;65.50
70521;BME280;58442;52.716;23.560;2023-08-24T01:06:11;101582.69;;;14.45;65.49
70521;BME280;58442;52.716;23.560;2023-08-24T01:08:13;101588.17;;;14.45;65.51
70521;BME280;58442;52.716;23.560;2023-08-24T01:10:14;101590.47;;;14.43;65.50
70521;BME280;58442;52.716;23.560;2023-08-24T01:14:41;101590.00;;;14.41;65.46
70521;BME280;58442;52.716;23.560;2023-08-24T01:16:48;101584.11;;;14.39;65.48
70521;BME280;58442;52.716;23.560;2023-08-24T01:18:52;101582.88;;;14.36;65.53
70521;BME280;58442;52.716;23.560;2023-08-24T01:20:54;101587.09;;;14.34;65.61
70521;BME280;58442;52.716;23.560;2023-08-24T01:23:12;101586.66;;;14.32;65.65
70521;BME280;58442;52.716;23.560;2023-08-24T01:25:16;101583.49;;;14.30;65.73
70521;BME280;58442;52.716;23.560;2023-08-24T01:27:24;101582.23;;;14.27;65.82
70521;BME280;58442;52.716;23.560;2023-08-24T01:29:27;101584.53;;;14.25;65.94
70521;BME280;58442;52.716;23.560;2023-08-24T01:31:30;101581.36;;;14.23;66.03
70521;BME280;58442;52.716;23.560;2023-08-24T01:33:31;101578.63;;;14.23;66.08
70521;BME280;58442;52.716;23.560;2023-08-24T01:35:38;101580.57;;;14.22;66.12
70521;BME280;58442;52.716;23.560;2023-08-24T01:37:40;101587.98;;;14.22;66.21
70521;BME280;58442;52.716;23.560;2023-08-24T01:39:48;101584.45;;;14.21;66.25
70521;BME280;58442;52.716;23.560;2023-08-24T01:41:53;101581.73;;;14.21;66.28
70521;BME280;58442;52.716;23.560;2023-08-24T01:43:57;101587.19;;;14.21;66.32
70521;BME280;58442;52.716;23.560;2023-08-24T01:46:03;101574.65;;;14.20;66.42
70521;BME280;58442;52.716;23.560;2023-08-24T01:48:05;101577.72;;;14.19;66.48
70521;BME280;58442;52.716;23.560;2023-08-24T01:50:07;101579.31;;;14.20;66.53
70521;BME280;58442;52.716;23.560;2023-08-24T01:52:09;101574.20;;;14.18;66.58
70521;BME280;58442;52.716;23.560;2023-08-24T01:54:11;101573.41;;;14.18;66.69
70521;BME280;58442;52.716;23.560;2023-08-24T01:56:15;101568.73;;;14.18;66.74
70521;BME280;58442;52.716;23.560;2023-08-24T01:58:18;101572.26;;;14.19;66.76
70521;BME280;58442;52.716;23.560;2023-08-24T02:00:24;101571.47;;;14.18;66.79
70521;BME280;58442;52.716;23.560;2023-08-24T02:02:25;101569.53;;;14.19;66.82
70521;BME280;58442;52.716;23.560;2023-08-24T02:04:27;101566.00;;;14.18;66.84
70521;BME280;58442;52.716;23.560;2023-08-24T02:06:28;101568.73;;;14.18;66.87
70521;BME280;58442;52.716;23.560;2023-08-24T02:08:39;101560.09;;;14.16;66.92
70521;BME280;58442;52.716;23.560;2023-08-24T02:10:40;101562.04;;;14.16;67.00
70521;BME280;58442;52.716;23.560;2023-08-24T02:12:41;101570.60;;;14.14;67.04
70521;BME280;58442;52.716;23.560;2023-08-24T02:14:43;101567.87;;;14.14;67.02
70521;BME280;58442;52.716;23.560;2023-08-24T02:16:53;101569.45;;;14.15;67.03
70521;BME280;58442;52.716;23.560;2023-08-24T02:18:55;101558.05;;;14.13;67.09
70521;BME280;58442;52.716;23.560;2023-08-24T02:20:56;101560.78;;;14.13;67.12
70521;BME280;58442;52.716;23.560;2023-08-24T02:22:57;101555.31;;;14.13;67.14
70521;BME280;58442;52.716;23.560;2023-08-24T02:25:09;101555.31;;;14.13;67.19
70521;BME280;58442;52.716;23.560;2023-08-24T02:27:11;101558.05;;;14.13;67.25
70521;BME280;58442;52.716;23.560;2023-08-24T02:29:12;101556.94;;;14.14;67.34
70521;BME280;58442;52.716;23.560;2023-08-24T02:31:13;101556.15;;;14.14;67.33
70521;BME280;58442;52.716;23.560;2023-08-24T02:33:23;101547.58;;;14.15;67.40
70521;BME280;58442;52.716;23.560;2023-08-24T02:35:24;101546.00;;;14.14;67.46
70521;BME280;58442;52.716;23.560;2023-08-24T02:37:26;101549.84;;;14.13;67.61
70521;BME280;58442;52.716;23.560;2023-08-24T02:39:28;101547.48;;;14.12;67.75
70521;BME280;58442;52.716;23.560;2023-08-24T02:41:38;101547.12;;;14.13;67.86
70521;BME280;58442;52.716;23.560;2023-08-24T02:43:40;101543.27;;;14.14;67.98
70521;BME280;58442;52.716;23.560;2023-08-24T02:45:41;101545.63;;;14.16;68.10
70521;BME280;58442;52.716;23.560;2023-08-24T02:47:42;101541.39;;;14.18;68.11
70521;BME280;58442;52.716;23.560;2023-08-24T02:49:53;101541.50;;;14.22;68.14
70521;BME280;58442;52.716;23.560;2023-08-24T02:51:54;101538.41;;;14.23;68.12
70521;BME280;58442;52.716;23.560;2023-08-24T02:53:55;101537.70;;;14.27;68.19
70521;BME280;58442;52.716;23.560;2023-08-24T02:55:57;101540.09;;;14.28;68.22
70521;BME280;58442;52.716;23.560;2023-08-24T02:58:08;101533.47;;;14.29;68.30
70521;BME280;58442;52.716;23.560;2023-08-24T03:00:09;101533.91;;;14.31;68.39
70521;BME280;58442;52.716;23.560;2023-08-24T03:02:14;101531.60;;;14.33;68.47
70521;BME280;58442;52.716;23.560;2023-08-24T03:04:16;101532.39;;;14.34;68.51
70521;BME280;58442;52.716;23.560;2023-08-24T03:06:23;101528.54;;;14.35;68.57
70521;BME280;58442;52.716;23.560;2023-08-24T03:08:27;101531.71;;;14.37;68.67
70521;BME280;58442;52.716;23.560;2023-08-24T03:10:28;101531.71;;;14.37;68.71
70521;BME280;58442;52.716;23.560;2023-08-24T03:12:29;101538.76;;;14.38;68.74
70521;BME280;58442;52.716;23.560;2023-08-24T03:14:37;101541.14;;;14.39;68.80
70521;BME280;58442;52.716;23.560;2023-08-24T03:16:38;101543.51;;;14.41;68.90
70521;BME280;58442;52.716;23.560;2023-08-24T03:18:40;101536.56;;;14.43;68.94
70521;BME280;58442;52.716;23.560;2023-08-24T03:20:41;101535.87;;;14.46;68.92
70521;BME280;58442;52.716;23.560;2023-08-24T03:22:52;101528.91;;;14.49;68.92
70521;BME280;58442;52.716;23.560;2023-08-24T03:24:53;101533.66;;;14.52;68.98
70521;BME280;58442;52.716;23.560;2023-08-24T03:26:55;101531.73;;;14.53;68.99
70521;BME280;58442;52.716;23.560;2023-08-24T03:28:56;101528.30;;;14.56;68.98
70521;BME280;58442;52.716;23.560;2023-08-24T03:31:07;101527.93;;;14.57;69.00
70521;BME280;58442;52.716;23.560;2023-08-24T03:33:08;101524.83;;;14.59;69.29
70521;BME280;58442;52.716;23.560;2023-08-24T03:35:10;101530.41;;;14.62;69.06
70521;BME280;58442;52.716;23.560;2023-08-24T03:37:12;101528.10;;;14.64;69.03
70521;BME280;58442;52.716;23.560;2023-08-24T03:39:22;101520.68;;;14.65;69.07
70521;BME280;58442;52.716;23.560;2023-08-24T03:41:23;101528.52;;;14.66;69.14
70521;BME280;58442;52.716;23.560;2023-08-24T03:43:24;101528.95;;;14.68;69.15
70521;BME280;58442;52.716;23.560;2023-08-24T03:45:26;101532.95;;;14.71;69.15
70521;BME280;58442;52.716;23.560;2023-08-24T03:47:36;101535.31;;;14.72;69.18
70521;BME280;58442;52.716;23.560;2023-08-24T03:49:38;101534.95;;;14.74;69.26
70521;BME280;58442;52.716;23.560;2023-08-24T03:51:39;101530.28;;;14.74;69.28
70521;BME280;58442;52.716;23.560;2023-08-24T03:53:40;101538.94;;;14.76;69.26
70521;BME280;58442;52.716;23.560;2023-08-24T03:55:52;101537.79;;;14.77;69.29
70521;BME280;58442;52.716;23.560;2023-08-24T03:57:53;101536.63;;;14.78;69.39
70521;BME280;58442;52.716;23.560;2023-08-24T03:59:55;101528.85;;;14.81;69.41
70521;BME280;58442;52.716;23.560;2023-08-24T04:01:57;101536.70;;;14.82;69.42
70521;BME280;58442;52.716;23.560;2023-08-24T04:04:06;101531.32;;;14.86;69.42
70521;BME280;58442;52.716;23.560;2023-08-24T04:06:07;101534.48;;;14.88;69.40
70521;BME280;58442;52.716;23.560;2023-08-24T04:08:09;101536.88;;;14.89;69.40
70521;BME280;58442;52.716;23.560;2023-08-24T04:10:11;101536.88;;;14.89;69.43
70521;BME280;58442;52.716;23.560;2023-08-24T04:12:21;101525.12;;;14.89;69.52
70521;BME280;58442;52.716;23.560;2023-08-24T04:14:22;101532.21;;;14.90;69.61
70521;BME280;58442;52.716;23.560;2023-08-24T04:16:23;101526.38;;;14.91;69.65
70521;BME280;58442;52.716;23.560;2023-08-24T04:18:25;101529.17;;;14.95;69.64
70521;BME280;58442;52.716;23.560;2023-08-24T04:20:35;101534.31;;;14.96;69.68
70521;BME280;58442;52.716;23.560;2023-08-24T04:22:37;101530.05;;;14.99;69.76
70521;BME280;58442;52.716;23.560;2023-08-24T04:24:38;101532.42;;;15.00;69.79
70521;BME280;58442;52.716;23.560;2023-08-24T04:26:39;101527.83;;;15.04;69.77
70521;BME280;58442;52.716;23.560;2023-08-24T04:28:50;101518.53;;;15.09;69.78
70521;BME280;58442;52.716;23.560;2023-08-24T04:30:54;101517.03;;;15.12;69.84
70521;BME280;58442;52.716;23.560;2023-08-24T04:32:57;101510.46;;;15.16;69.86
70521;BME280;58442;52.716;23.560;2023-08-24T04:35:00;101512.49;;;15.19;69.85
70521;BME280;58442;52.716;23.560;2023-08-24T04:37:06;101517.24;;;15.22;69.86
70521;BME280;58442;52.716;23.560;2023-08-24T04:39:08;101518.12;;;15.26;69.92
70521;BME280;58442;52.716;23.560;2023-08-24T04:41:09;101517.84;;;15.31;69.92
70521;BME280;58442;52.716;23.560;2023-08-24T04:43:13;101515.95;;;15.36;69.89
70521;BME280;58442;52.716;23.560;2023-08-24T04:45:20;101526.63;;;15.41;69.85
70521;BME280;58442;52.716;23.560;2023-08-24T04:47:21;101525.88;;;15.44;69.88
70521;BME280;58442;52.716;23.560;2023-08-24T04:49:23;101522.45;;;15.47;69.88
70521;BME280;58442;52.716;23.560;2023-08-24T04:51:24;101522.50;;;15.50;69.84
70521;BME280;58442;52.716;23.560;2023-08-24T04:53:35;101526.48;;;15.53;69.83
70521;BME280;58442;52.716;23.560;2023-08-24T04:55:36;101518.69;;;15.55;69.85
70521;BME280;58442;52.716;23.560;2023-08-24T04:57:37;101522.64;;;15.57;69.86
70521;BME280;58442;52.716;23.560;2023-08-24T04:59:39;101519.98;;;15.61;69.84
70521;BME280;58442;52.716;23.560;2023-08-24T05:01:49;101521.23;;;15.64;69.87
70521;BME280;58442;52.716;23.560;2023-08-24T05:03:52;101527.58;;;15.68;69.87
70521;BME280;58442;52.716;23.560;2023-08-24T05:05:53;101524.55;;;15.73;69.81
70521;BME280;58442;52.716;23.560;2023-08-24T05:07:55;101524.60;;;15.76;69.81
70521;BME280;58442;52.716;23.560;2023-08-24T05:10:05;101531.01;;;15.84;69.68
70521;BME280;58442;52.716;23.560;2023-08-24T05:12:07;101537.36;;;15.88;69.69
70521;BME280;58442;52.716;23.560;2023-08-24T05:14:09;101530.79;;;15.93;69.65
70521;BME280;58442;52.716;23.560;2023-08-24T05:16:10;101533.58;;;15.96;69.61
70521;BME280;58442;52.716;23.560;2023-08-24T05:18:19;101530.92;;;16.00;69.61
70521;BME280;58442;52.716;23.560;2023-08-24T05:20:21;101539.99;;;16.04;69.62
70521;BME280;58442;52.716;23.560;2023-08-24T05:22:23;101531.47;;;16.09;69.60
70521;BME280;58442;52.716;23.560;2023-08-24T05:24:24;101529.59;;;16.13;69.55
70521;BME280;58442;52.716;23.560;2023-08-24T05:26:34;101524.95;;;16.17;69.54
70521;BME280;58442;52.716;23.560;2023-08-24T05:28:35;101525.80;;;16.21;69.55
70521;BME280;58442;52.716;23.560;2023-08-24T05:30:36;101527.44;;;16.26;69.57
70521;BME280;58442;52.716;23.560;2023-08-24T05:32:38;101520.44;;;16.28;69.53
70521;BME280;58442;52.716;23.560;2023-08-24T05:34:49;101515.78;;;16.32;69.51
70521;BME280;58442;52.716;23.560;2023-08-24T05:36:50;101519.38;;;16.36;69.49
70521;BME280;58442;52.716;23.560;2023-08-24T05:38:52;101521.84;;;16.41;69.42
70521;BME280;58442;52.716;23.560;2023-08-24T05:40:58;101522.73;;;16.49;69.36
70521;BME280;58442;52.716;23.560;2023-08-24T05:43:03;101517.73;;;16.55;69.28
70521;BME280;58442;52.716;23.560;2023-08-24T05:45:05;101528.44;;;16.63;69.24
70521;BME280;58442;52.716;23.560;2023-08-24T05:47:07;101532.10;;;16.71;69.16
70521;BME280;58442;52.716;23.560;2023-08-24T05:49:08;101526.72;;;16.78;69.04
70521;BME280;58442;52.716;23.560;2023-08-24T05:51:18;101524.49;;;16.87;68.92
70521;BME280;58442;52.716;23.560;2023-08-24T05:53:19;101528.95;;;16.95;68.86
70521;BME280;58442;52.716;23.560;2023-08-24T05:55:21;101529.04;;;17.03;68.68
70521;BME280;58442;52.716;23.560;2023-08-24T05:57:22;101525.21;;;17.11;68.67
70521;BME280;58442;52.716;23.560;2023-08-24T05:59:33;101525.31;;;17.18;68.54
70521;BME280;58442;52.716;23.560;2023-08-24T06:01:35;101515.98;;;17.26;68.39
70521;BME280;58442;52.716;23.560;2023-08-24T06:03:39;101516.48;;;17.35;68.22
70521;BME280;58442;52.716;23.560;2023-08-24T06:05:41;101525.24;;;17.44;68.05
70521;BME280;58442;52.716;23.560;2023-08-24T06:07:48;101531.23;;;17.54;67.94
70521;BME280;58442;52.716;23.560;2023-08-24T06:09:49;101523.48;;;17.63;67.82
70521;BME280;58442;52.716;23.560;2023-08-24T06:11:52;101515.77;;;17.72;67.64
70521;BME280;58442;52.716;23.560;2023-08-24T06:13:53;101517.81;;;17.82;67.46
70521;BME280;58442;52.716;23.560;2023-08-24T06:16:02;101517.51;;;17.91;67.26
70521;BME280;58442;52.716;23.560;2023-08-24T06:18:04;101519.97;;;17.99;67.17
70521;BME280;58442;52.716;23.560;2023-08-24T06:20:06;101514.94;;;18.09;67.08
70521;BME280;58442;52.716;23.560;2023-08-24T06:22:11;101520.89;;;18.18;66.93
70521;BME280;58442;52.716;23.560;2023-08-24T06:24:17;101511.95;;;18.28;66.75
70521;BME280;58442;52.716;23.560;2023-08-24T06:26:18;101512.02;;;18.39;66.56
70521;BME280;58442;52.716;23.560;2023-08-24T06:28:20;101512.52;;;18.48;66.34
70521;BME280;58442;52.716;23.560;2023-08-24T06:30:21;101505.48;;;18.57;66.11
70521;BME280;58442;52.716;23.560;2023-08-24T06:32:32;101500.09;;;18.68;65.89
70521;BME280;58442;52.716;23.560;2023-08-24T06:34:33;101502.49;;;18.77;65.89
70521;BME280;58442;52.716;23.560;2023-08-24T06:36:34;101502.17;;;18.89;65.48
70521;BME280;58442;52.716;23.560;2023-08-24T06:38:36;101509.70;;;18.99;65.28
70521;BME280;58442;52.716;23.560;2023-08-24T06:40:46;101507.80;;;19.10;65.08
70521;BME280;58442;52.716;23.560;2023-08-24T06:42:48;101510.22;;;19.23;64.90
70521;BME280;58442;52.716;23.560;2023-08-24T06:44:49;101501.97;;;19.33;64.75
70521;BME280;58442;52.716;23.560;2023-08-24T06:46:53;101511.09;;;19.45;64.59
70521;BME280;58442;52.716;23.560;2023-08-24T06:49:01;101504.42;;;19.56;64.40
70521;BME280;58442;52.716;23.560;2023-08-24T06:51:03;101502.89;;;19.66;64.20
70521;BME280;58442;52.716;23.560;2023-08-24T06:53:04;101507.62;;;19.76;64.03
70521;BME280;58442;52.716;23.560;2023-08-24T06:55:07;101503.33;;;19.86;63.92
70521;BME280;58442;52.716;23.560;2023-08-24T06:57:16;101513.97;;;19.94;63.79
70521;BME280;58442;52.716;23.560;2023-08-24T06:59:17;101515.55;;;19.99;63.70
70521;BME280;58442;52.716;23.560;2023-08-24T07:01:19;101512.79;;;20.03;63.66
70521;BME280;58442;52.716;23.560;2023-08-24T07:03:20;101511.63;;;20.07;63.59
70521;BME280;58442;52.716;23.560;2023-08-24T07:05:31;101506.91;;;20.11;63.52
70521;BME280;58442;52.716;23.560;2023-08-24T07:07:33;101506.10;;;20.14;63.46
70521;BME280;58442;52.716;23.560;2023-08-24T07:09:34;101512.80;;;20.17;63.38
70521;BME280;58442;52.716;23.560;2023-08-24T07:11:36;101513.99;;;20.19;63.31
70521;BME280;58442;52.716;23.560;2023-08-24T07:13:45;101503.73;;;20.23;63.22
70521;BME280;58442;52.716;23.560;2023-08-24T07:15:49;101509.25;;;20.27;63.12
70521;BME280;58442;52.716;23.560;2023-08-24T07:17:51;101511.64;;;20.32;63.06
70521;BME280;58442;52.716;23.560;2023-08-24T07:19:53;101510.84;;;20.39;62.98
70521;BME280;58442;52.716;23.560;2023-08-24T07:23:20;101511.23;;;20.52;62.71
70521;BME280;58442;52.716;23.560;2023-08-24T07:25:22;101514.38;;;20.57;62.57
70521;BME280;58442;52.716;23.560;2023-08-24T07:27:23;101508.84;;;20.64;62.46
70521;BME280;58442;52.716;23.560;2023-08-24T07:29:24;101506.48;;;20.73;62.32
70521;BME280;58442;52.716;23.560;2023-08-24T07:31:26;101520.28;;;20.81;62.18
70521;BME280;58442;52.716;23.560;2023-08-24T07:33:27;101517.10;;;20.89;62.04
70521;BME280;58442;52.716;23.560;2023-08-24T07:35:30;101522.98;;;20.98;61.90
70521;BME280;58442;52.716;23.560;2023-08-24T07:37:33;101520.60;;;21.08;61.74
70521;BME280;58442;52.716;23.560;2023-08-24T07:39:34;101524.91;;;21.16;61.54
70521;BME280;58442;52.716;23.560;2023-08-24T07:41:36;101527.24;;;21.24;61.35
70521;BME280;58442;52.716;23.560;2023-08-24T07:43:45;101530.01;;;21.32;61.22
70521;BME280;58442;52.716;23.560;2023-08-24T07:45:46;101526.83;;;21.37;61.07
70521;BME280;58442;52.716;23.560;2023-08-24T07:47:47;101528.40;;;21.41;60.99
70521;BME280;58442;52.716;23.560;2023-08-24T07:49:49;101524.79;;;21.48;60.92
70521;BME280;58442;52.716;23.560;2023-08-24T07:51:59;101523.13;;;21.61;60.68
70521;BME280;58442;52.716;23.560;2023-08-24T07:54:01;101522.29;;;21.71;60.58
70521;BME280;58442;52.716;23.560;2023-08-24T07:56:02;101522.62;;;21.84;60.37
70521;BME280;58442;52.716;23.560;2023-08-24T07:58:04;101528.48;;;21.93;60.30
70521;BME280;58442;52.716;23.560;2023-08-24T08:00:14;101516.56;;;22.03;60.22
70521;BME280;58442;52.716;23.560;2023-08-24T08:02:16;101520.39;;;22.20;59.87
70521;BME280;58442;52.716;23.560;2023-08-24T08:04:17;101513.53;;;22.35;59.62
70521;BME280;58442;52.716;23.560;2023-08-24T08:06:19;101519.30;;;22.55;59.31
70521;BME280;58442;52.716;23.560;2023-08-24T08:08:29;101521.97;;;22.66;59.16
70521;BME280;58442;52.716;23.560;2023-08-24T08:10:30;101523.34;;;22.85;58.83
70521;BME280;58442;52.716;23.560;2023-08-24T08:12:31;101517.27;;;23.01;58.50
70521;BME280;58442;52.716;23.560;2023-08-24T08:14:33;101513.15;;;23.12;58.34
70521;BME280;58442;52.716;23.560;2023-08-24T08:16:43;101521.72;;;23.25;58.11
70521;BME280;58442;52.716;23.560;2023-08-24T08:18:45;101520.80;;;23.35;57.92
70521;BME280;58442;52.716;23.560;2023-08-24T08:20:51;101520.71;;;23.42;57.77
70521;BME280;58442;52.716;23.560;2023-08-24T08:22:53;101522.98;;;23.51;57.58
70521;BME280;58442;52.716;23.560;2023-08-24T08:24:58;101514.61;;;23.55;57.44
70521;BME280;58442;52.716;23.560;2023-08-24T08:26:59;101526.43;;;23.59;57.27
70521;BME280;58442;52.716;23.560;2023-08-24T08:29:01;101528.41;;;23.62;57.15
70521;BME280;58442;52.716;23.560;2023-08-24T08:31:03;101520.80;;;23.66;57.09
70521;BME280;58442;52.716;23.560;2023-08-24T08:33:13;101523.90;;;23.71;56.97
70521;BME280;58442;52.716;23.560;2023-08-24T08:35:14;101525.47;;;23.72;56.85
70521;BME280;58442;52.716;23.560;2023-08-24T08:37:15;101519.49;;;23.74;56.74
70521;BME280;58442;52.716;23.560;2023-08-24T08:39:17;101530.98;;;23.76;56.64
70521;BME280;58442;52.716;23.560;2023-08-24T08:41:30;101527.36;;;23.79;56.55
70521;BME280;58442;52.716;23.560;2023-08-24T08:43:34;101519.38;;;23.81;56.44
70521;BME280;58442;52.716;23.560;2023-08-24T08:45:35;101532.13;;;23.79;56.42
70521;BME280;58442;52.716;23.560;2023-08-24T08:47:38;101520.70;;;23.73;56.41
70521;BME280;58442;52.716;23.560;2023-08-24T08:49:43;101521.13;;;23.71;56.41
70521;BME280;58442;52.716;23.560;2023-08-24T08:51:44;101523.12;;;23.71;56.44
70521;BME280;58442;52.716;23.560;2023-08-24T08:53:46;101524.26;;;23.73;56.39
70521;BME280;58442;52.716;23.560;2023-08-24T08:55:51;101516.14;;;23.86;56.16
70521;BME280;58442;52.716;23.560;2023-08-24T08:57:58;101516.78;;;23.97;55.96
70521;BME280;58442;52.716;23.560;2023-08-24T09:00:02;101519.13;;;23.99;55.95
70521;BME280;58442;52.716;23.560;2023-08-24T09:02:05;101513.15;;;24.00;55.97
70521;BME280;58442;52.716;23.560;2023-08-24T09:04:07;101521.48;;;24.00;55.95
70521;BME280;58442;52.716;23.560;2023-08-24T09:06:11;101505.55;;;24.05;55.87
70521;BME280;58442;52.716;23.560;2023-08-24T09:08:14;101507.85;;;24.10;55.76
70521;BME280;58442;52.716;23.560;2023-08-24T09:10:17;101501.98;;;24.27;55.42
70521;BME280;58442;52.716;23.560;2023-08-24T09:12:18;101507.14;;;24.52;54.99
70521;BME280;58442;52.716;23.560;2023-08-24T09:14:26;101490.50;;;24.72;54.73
70521;BME280;58442;52.716;23.560;2023-08-24T09:16:30;101504.76;;;24.94;54.40
70521;BME280;58442;52.716;23.560;2023-08-24T09:18:38;101497.66;;;25.13;54.21
70521;BME280;58442;52.716;23.560;2023-08-24T09:20:40;101503.36;;;25.26;53.98
70521;BME280;58442;52.716;23.560;2023-08-24T09:22:42;101494.14;;;25.29;53.78
70521;BME280;58442;52.716;23.560;2023-08-24T09:24:48;101491.30;;;25.32;53.49
70521;BME280;58442;52.716;23.560;2023-08-24T09:26:55;101490.27;;;25.43;52.83
70521;BME280;58442;52.716;23.560;2023-08-24T09:28:57;101479.86;;;25.63;52.26
70521;BME280;58442;52.716;23.560;2023-08-24T09:31:00;101484.67;;;25.79;51.94
70521;BME280;58442;52.716;23.560;2023-08-24T09:33:03;101486.78;;;25.75;51.96
70521;BME280;58442;52.716;23.560;2023-08-24T09:35:09;101478.59;;;25.84;51.63
70521;BME280;58442;52.716;23.560;2023-08-24T09:37:15;101482.52;;;26.03;51.04
70521;BME280;58442;52.716;23.560;2023-08-24T09:39:16;101485.39;;;26.15;50.70
70521;BME280;58442;52.716;23.560;2023-08-24T09:41:20;101470.20;;;26.33;50.21
70521;BME280;58442;52.716;23.560;2023-08-24T09:43:22;101474.90;;;26.52;49.77
70521;BME280;58442;52.716;23.560;2023-08-24T09:45:24;101475.27;;;26.67;49.40
70521;BME280;58442;52.716;23.560;2023-08-24T09:47:28;101469.63;;;26.83;49.07
70521;BME280;58442;52.716;23.560;2023-08-24T09:49:29;101466.54;;;26.94;48.63
70521;BME280;58442;52.716;23.560;2023-08-24T09:51:31;101458.24;;;27.07;48.28
70521;BME280;58442;52.716;23.560;2023-08-24T09:53:37;101461.38;;;27.21;48.02
70521;BME280;58442;52.716;23.560;2023-08-24T09:55:46;101459.05;;;27.33;47.82
70521;BME280;58442;52.716;23.560;2023-08-24T09:57:53;101465.20;;;27.40;47.58
70521;BME280;58442;52.716;23.560;2023-08-24T09:59:58;101459.84;;;27.46;47.24
70521;BME280;58442;52.716;23.560;2023-08-24T10:02:00;101458.25;;;27.58;46.95
70521;BME280;58442;52.716;23.560;2023-08-24T10:04:05;101455.49;;;27.70;46.83
70521;BME280;58442;52.716;23.560;2023-08-24T10:06:10;101453.92;;;27.69;46.72
70521;BME280;58442;52.716;23.560;2023-08-24T10:08:14;101447.21;;;27.54;46.88
70521;BME280;58442;52.716;23.560;2023-08-24T10:10:19;101461.17;;;27.41;46.90
70521;BME280;58442;52.716;23.560;2023-08-24T10:12:23;101458.36;;;27.29;46.99
70521;BME280;58442;52.716;23.560;2023-08-24T10:14:32;101453.90;;;27.18;46.88
70521;BME280;58442;52.716;23.560;2023-08-24T10:16:37;101454.90;;;27.12;46.59
70521;BME280;58442;52.716;23.560;2023-08-24T10:18:40;101455.11;;;27.17;46.39
70521;BME280;58442;52.716;23.560;2023-08-24T10:20:43;101453.13;;;27.18;46.41
70521;BME280;58442;52.716;23.560;2023-08-24T10:22:46;101465.16;;;27.15;46.28
70521;BME280;58442;52.716;23.560;2023-08-24T10:24:51;101458.11;;;27.10;46.07
70521;BME280;58442;52.716;23.560;2023-08-24T10:26:57;101459.89;;;27.04;46.07
70521;BME280;58442;52.716;23.560;2023-08-24T10:28:59;101458.88;;;26.98;46.12
70521;BME280;58442;52.716;23.560;2023-08-24T10:31:01;101452.27;;;26.92;46.08
70521;BME280;58442;52.716;23.560;2023-08-24T10:33:05;101459.95;;;26.88;46.12
70521;BME280;58442;52.716;23.560;2023-08-24T10:35:07;101460.48;;;26.83;46.09
70521;BME280;58442;52.716;23.560;2023-08-24T10:37:11;101459.49;;;26.77;46.15
70521;BME280;58442;52.716;23.560;2023-08-24T10:39:13;101464.82;;;26.71;46.15
70521;BME280;58442;52.716;23.560;2023-08-24T10:41:14;101459.45;;;26.64;46.13